Αναφορές METAR Αεροδρομίων

 

LGTS - THESSALONIKI - GREECE
Ενημερώθηκε: 29/01/2023 07:20
Αραιές Νεφώσεις
Αραιές Νεφώσεις
 Ανεμος από varies
Ανεμος: varies 2 km/h
Θερμοκρασία: 5°C
Σημείο Δρόσου: -1°C
Υγρασία: 66%
Βαρόμετρο: 1020 hPa
Clouds: Αραιές Νεφώσεις
Visibility: 10 km
Cloud details: Αραιές Νεφώσεις 914 m
2023/01/29 05:20 LGTS 290520Z VRB01KT 9999 FEW030 05/M01 Q1020 NOSIG
LGLR - LARTISA - GREECE
Ενημερώθηκε: 29/01/2023 06:50
Σχεδόν νεφελώδης
Σχεδόν νεφελώδης
 Ανεμος από calm
Ανεμος: Απνοια
Θερμοκρασία: 4°C
Σημείο Δρόσου: 3°C
Υγρασία: 93%
Βαρόμετρο: 1018 hPa
Clouds: Σχεδόν νεφελώδης
Visibility: 10 km
Cloud details: Αραιές Νεφώσεις 914 m
Σχεδόν νεφελώδης 2438 m
2023/01/29 04:50 LGLR 290450Z 00000KT 9999 FEW030 BKN080 04/03 Q1018 BLU
 
LGKZ - KOZANI - GREECE
Ενημερώθηκε: 29/01/2023 07:20

 Ανεμος από Β
Ανεμος: Β 15 km/h
Θερμοκρασία: 0°C
Δείκτη Ψύχρας: -4°C
Σημείο Δρόσου: -4°C
Υγρασία: 75%
Βαρόμετρο: 1017 hPa
2023/01/29 05:20 LGKZ 290520Z AUTO 35008KT //// // ////// M00/M04 Q1017 RE//
LGKV - KAVALA - GREECE
Ενημερώθηκε: 28/01/2023 19:50
NOT Current
Συννεφιά
Συννεφιά
 Ανεμος από ΑΒΑ
Ανεμος: ΑΒΑ 13 km/h
Θερμοκρασία: 6°C
Δείκτη Ψύχρας: 3°C
Σημείο Δρόσου: 4°C
Υγρασία: 87%
Βαρόμετρο: 1015 hPa
Clouds: Συννεφιά
Visibility: 10 km
Cloud details: Αραιές Νεφώσεις 457 m
Συννεφιά 762 m
2023/01/28 17:50 LGKV 281750Z 06007KT 9999 FEW015 OVC025 06/04 Q1015
 
LGIO - IOANNINA - GREECE
Ενημερώθηκε: 29/01/2023 07:20

 Ανεμος από varies
Ανεμος: varies 4 km/h
Θερμοκρασία: -2°C
Σημείο Δρόσου: -2°C
Υγρασία: 100%
Βαρόμετρο: 1016 hPa
2023/01/29 05:20 LGIO 290520Z AUTO VRB02KT //// // ////// M02/M02 Q1016 RE//
LGBL - BOLOS - GREECE
Ενημερώθηκε: 29/01/2023 06:50
Μερικώς νεφελώδης
Μερικώς νεφελώδης
 Ανεμος από ΒΔ
Ανεμος: ΒΔ 9 km/h
Θερμοκρασία: 6°C
Δείκτη Ψύχρας: 4°C
Σημείο Δρόσου: 3°C
Υγρασία: 81%
Βαρόμετρο: 1018 hPa
Clouds: Μερικώς νεφελώδης
Visibility: 10 km
Cloud details: Αραιές Νεφώσεις 914 m
Μερικώς νεφελώδης 2134 m
2023/01/29 04:50 LGBL 290450Z 31005KT 9999 FEW030 SCT070 06/03 Q1018
 
LGMT - MITILINI - GREECE
Ενημερώθηκε: 29/01/2023 07:20
Μερικώς νεφελώδης
Μερικώς νεφελώδης
 Ανεμος από Α
Ανεμος: Α 17 km/h
Θερμοκρασία: 10°C
Δείκτη Ψύχρας: 8°C
Σημείο Δρόσου: 6°C
Υγρασία: 76%
Βαρόμετρο: 1016 hPa
Clouds: Μερικώς νεφελώδης
Visibility: 10 km
Cloud details: Αραιές Νεφώσεις 549 m
Μερικώς νεφελώδης 762 m
2023/01/29 05:20 LGMT 290520Z 09009KT 9999 FEW018 SCT025 10/06 Q1016
LGAV - ATHENS - GREECE
Ενημερώθηκε: 29/01/2023 07:20
Σχεδόν νεφελώδης
Σχεδόν νεφελώδης
 Ανεμος από calm
Ανεμος: Απνοια
Θερμοκρασία: 8°C
Σημείο Δρόσου: 4°C
Υγρασία: 76%
Βαρόμετρο: 1016 hPa
Clouds: Σχεδόν νεφελώδης
Visibility: 10 km
Cloud details: Αραιές Νεφώσεις 610 m
Μερικώς νεφελώδης 1067 m
Σχεδόν νεφελώδης 2134 m
2023/01/29 05:20 LGAV 290520Z 00000KT 9999 FEW020 SCT035 BKN070 08/04 Q1016 NOSIG
 
LGRP - RODOS - GREECE
Ενημερώθηκε: 29/01/2023 07:20
Μερικώς νεφελώδης
Μερικώς νεφελώδης
 Ανεμος από varies
Ανεμος: varies 6 km/h
Θερμοκρασία: 11°C
Σημείο Δρόσου: 9°C
Υγρασία: 88%
Βαρόμετρο: 1014 hPa
Clouds: Μερικώς νεφελώδης
Visibility: 10 km
Cloud details: Μερικώς νεφελώδης 488 m
Μερικώς νεφελώδης 610 m
2023/01/29 05:20 LGRP 290520Z VRB03KT 9999 SCT016 SCT020 11/09 Q1014 NOSIG
LGIR - HRAKLIO/KRITI - GREECE
Ενημερώθηκε: 29/01/2023 07:20
Μερικώς νεφελώδης
Μερικώς νεφελώδης
 Ανεμος από Ν
Ανεμος: Ν 17 km/h
Θερμοκρασία: 10°C
Δείκτη Ψύχρας: 8°C
Σημείο Δρόσου: 7°C
Υγρασία: 82%
Βαρόμετρο: 1015 hPa
Clouds: Μερικώς νεφελώδης
Visibility: 10 km
Cloud details: Αραιές Νεφώσεις 549 m
Μερικώς νεφελώδης 762 m
2023/01/29 05:20 LGIR 290520Z 17009KT 9999 FEW018TCU SCT025 10/07 Q1015 NOSIG
 
LGMK - MIKONOS - GREECE
Ενημερώθηκε: 28/01/2023 19:50
NOT Current
Μερικώς νεφελώδης
Μερικώς νεφελώδης
 Ανεμος από varies
Ανεμος: varies 6 km/h
Θερμοκρασία: 10°C
Σημείο Δρόσου: 8°C
Υγρασία: 88%
Βαρόμετρο: 1013 hPa
Clouds: Μερικώς νεφελώδης
Visibility: 10 km
Cloud details: Μερικώς νεφελώδης 488 m
2023/01/28 17:50 LGMK 281750Z VRB03KT 9999 SCT016 10/08 Q1013
LGKR - KERKIRA - GREECE
Ενημερώθηκε: 29/01/2023 07:20
Αραιές Νεφώσεις
Αραιές Νεφώσεις
 Ανεμος από calm
Ανεμος: Απνοια
Θερμοκρασία: 3°C
Σημείο Δρόσου: 2°C
Υγρασία: 93%
Βαρόμετρο: 1015 hPa
Clouds: Αραιές Νεφώσεις
Visibility: 10 km
Cloud details: Αραιές Νεφώσεις 488 m
2023/01/29 05:20 LGKR 290520Z 00000KT 9999 FEW016 03/02 Q1015 NOSIG